Sn Margarita, California
Current Conditions -  °F | °C
As of 6:51 AM on Wednesday 22 Oct 2014 (Local Time) from KSMX Reporting Station
Clear Clear  
Wind Chill: 67°   Ceiling: Unl
Heat Index: 67°   Visibility: 10mi
Dew Point: 42°   Wind: 13mph
Humidity: 40%   Direction: 20°NNE
Pressure: 29.94"   Gusts: 20mph
Location:  35.235°N, 120.021°W
Report Text: KSMX 221351Z 02011G17KT 10SM CLR 19/06 A2994 RMK AO2 SLP138 T01940056
Loading
Personal Weather Stations






























Interactive Weather Map
Tropical Storm Tracking
New forecast layout! Learn more

10-Day Weather Forecast

Advertisements
Track Severe Weather on mobile